sensor_id;sensor_type;location;lat;lon;timestamp;pressure;altitude;pressure_sealevel;temperature;humidity
50364;BME280;36272;59.400;17.982;2023-03-26T00:01:44;99630.22;;;1.05;88.81
50364;BME280;36272;59.400;17.982;2023-03-26T00:06:47;99637.31;;;1.04;89.15
50364;BME280;36272;59.400;17.982;2023-03-26T00:11:52;99631.88;;;1.06;89.20
50364;BME280;36272;59.400;17.982;2023-03-26T00:16:53;99642.41;;;1.06;89.09
50364;BME280;36272;59.400;17.982;2023-03-26T00:21:55;99643.41;;;1.05;89.09
50364;BME280;36272;59.400;17.982;2023-03-26T00:26:57;99639.31;;;1.02;89.05
50364;BME280;36272;59.400;17.982;2023-03-26T00:32:00;99636.13;;;1.07;89.31
50364;BME280;36272;59.400;17.982;2023-03-26T00:37:02;99636.50;;;1.04;89.06
50364;BME280;36272;59.400;17.982;2023-03-26T00:42:03;99633.88;;;1.04;88.80
50364;BME280;36272;59.400;17.982;2023-03-26T00:47:07;99628.72;;;0.96;88.98
50364;BME280;36272;59.400;17.982;2023-03-26T00:52:08;99625.25;;;0.95;88.55
50364;BME280;36272;59.400;17.982;2023-03-26T00:57:10;99624.81;;;0.92;88.33
50364;BME280;36272;59.400;17.982;2023-03-26T01:02:16;99621.28;;;0.84;88.88
50364;BME280;36272;59.400;17.982;2023-03-26T01:07:19;99630.88;;;0.92;88.88
50364;BME280;36272;59.400;17.982;2023-03-26T01:12:25;99628.25;;;0.92;88.88
50364;BME280;36272;59.400;17.982;2023-03-26T01:17:27;99630.34;;;0.97;89.02
50364;BME280;36272;59.400;17.982;2023-03-26T01:22:34;99631.34;;;0.96;88.85
50364;BME280;36272;59.400;17.982;2023-03-26T01:27:55;99637.97;;;0.92;88.76
50364;BME280;36272;59.400;17.982;2023-03-26T01:33:01;99630.44;;;0.88;88.73
50364;BME280;36272;59.400;17.982;2023-03-26T01:48:13;99645.59;;;0.86;88.81
50364;BME280;36272;59.400;17.982;2023-03-26T01:53:15;99653.50;;;0.86;88.57
50364;BME280;36272;59.400;17.982;2023-03-26T02:03:30;99640.91;;;0.82;87.91
50364;BME280;36272;59.400;17.982;2023-03-26T02:08:41;99639.81;;;0.76;88.55
50364;BME280;36272;59.400;17.982;2023-03-26T02:13:46;99649.34;;;0.77;88.59
50364;BME280;36272;59.400;17.982;2023-03-26T02:18:49;99635.09;;;0.71;88.26
50364;BME280;36272;59.400;17.982;2023-03-26T02:23:59;99639.91;;;0.68;88.54
50364;BME280;36272;59.400;17.982;2023-03-26T02:29:03;99635.03;;;0.65;88.44
50364;BME280;36272;59.400;17.982;2023-03-26T02:34:05;99648.56;;;0.62;88.27
50364;BME280;36272;59.400;17.982;2023-03-26T02:39:08;99638.41;;;0.58;88.13
50364;BME280;36272;59.400;17.982;2023-03-26T02:44:12;99652.19;;;0.61;88.25
50364;BME280;36272;59.400;17.982;2023-03-26T02:49:14;99652.19;;;0.61;88.17
50364;BME280;36272;59.400;17.982;2023-03-26T02:54:16;99660.34;;;0.66;88.20
50364;BME280;36272;59.400;17.982;2023-03-26T02:59:18;99645.06;;;0.76;88.21
50364;BME280;36272;59.400;17.982;2023-03-26T03:04:20;99651.81;;;0.79;88.22
50364;BME280;36272;59.400;17.982;2023-03-26T03:09:23;99657.88;;;0.79;88.11
50364;BME280;36272;59.400;17.982;2023-03-26T03:14:27;99662.34;;;0.79;88.06
50364;BME280;36272;59.400;17.982;2023-03-26T03:19:29;99651.81;;;0.79;88.28
50364;BME280;36272;59.400;17.982;2023-03-26T03:24:31;99660.50;;;0.79;88.27
50364;BME280;36272;59.400;17.982;2023-03-26T03:29:34;99663.41;;;0.84;88.47
50364;BME280;36272;59.400;17.982;2023-03-26T03:34:36;99664.41;;;0.83;88.67
50364;BME280;36272;59.400;17.982;2023-03-26T03:39:38;99665.31;;;0.91;88.25
50364;BME280;36272;59.400;17.982;2023-03-26T03:44:40;99663.47;;;0.91;88.18
50364;BME280;36272;59.400;17.982;2023-03-26T03:49:42;99664.88;;;0.87;88.15
50364;BME280;36272;59.400;17.982;2023-03-26T03:54:44;99657.34;;;0.84;88.16
50364;BME280;36272;59.400;17.982;2023-03-26T03:59:46;99658.78;;;0.86;88.34
50364;BME280;36272;59.400;17.982;2023-03-26T04:04:48;99658.59;;;0.88;88.12
50364;BME280;36272;59.400;17.982;2023-03-26T04:09:50;99657.78;;;0.87;88.19
50364;BME280;36272;59.400;17.982;2023-03-26T04:14:52;99665.69;;;0.87;88.63
50364;BME280;36272;59.400;17.982;2023-03-26T04:19:54;99673.22;;;0.91;88.57
50364;BME280;36272;59.400;17.982;2023-03-26T04:24:55;99677.28;;;0.93;88.54
50364;BME280;36272;59.400;17.982;2023-03-26T04:29:58;99674.66;;;0.93;88.71
50364;BME280;36272;59.400;17.982;2023-03-26T04:35:01;99674.00;;;0.91;88.80
50364;BME280;36272;59.400;17.982;2023-03-26T04:40:27;99672.84;;;0.94;88.75
50364;BME280;36272;59.400;17.982;2023-03-26T04:45:30;99671.22;;;0.93;88.41
50364;BME280;36272;59.400;17.982;2023-03-26T04:50:32;99670.56;;;0.91;88.91
50364;BME280;36272;59.400;17.982;2023-03-26T04:55:56;99666.00;;;0.99;89.20
50364;BME280;36272;59.400;17.982;2023-03-26T05:01:01;99660.94;;;0.98;88.64
50364;BME280;36272;59.400;17.982;2023-03-26T05:06:04;99666.22;;;0.98;88.70
50364;BME280;36272;59.400;17.982;2023-03-26T05:11:09;99668.84;;;0.98;88.76
50364;BME280;36272;59.400;17.982;2023-03-26T05:16:12;99663.22;;;1.01;88.84
50364;BME280;36272;59.400;17.982;2023-03-26T05:21:14;99676.81;;;1.04;88.85
50364;BME280;36272;59.400;17.982;2023-03-26T05:26:15;99685.81;;;1.10;88.84
50364;BME280;36272;59.400;17.982;2023-03-26T05:31:18;99685.03;;;1.16;88.74
50364;BME280;36272;59.400;17.982;2023-03-26T05:36:22;99674.13;;;1.19;88.82
50364;BME280;36272;59.400;17.982;2023-03-26T05:41:24;99684.56;;;1.28;88.74
50364;BME280;36272;59.400;17.982;2023-03-26T05:46:26;99692.53;;;1.34;88.85
50364;BME280;36272;59.400;17.982;2023-03-26T05:51:28;99689.00;;;1.42;88.48
50364;BME280;36272;59.400;17.982;2023-03-26T05:56:29;99679.34;;;1.50;88.57
50364;BME280;36272;59.400;17.982;2023-03-26T06:01:31;99684.22;;;1.53;87.90
50364;BME280;36272;59.400;17.982;2023-03-26T06:06:33;99678.97;;;1.53;87.92
50364;BME280;36272;59.400;17.982;2023-03-26T06:11:34;99687.88;;;1.52;88.46
50364;BME280;36272;59.400;17.982;2023-03-26T06:16:36;99692.75;;;1.55;88.77
50364;BME280;36272;59.400;17.982;2023-03-26T06:21:38;99698.09;;;1.61;88.20
50364;BME280;36272;59.400;17.982;2023-03-26T06:26:39;99695.94;;;1.50;87.83
50364;BME280;36272;59.400;17.982;2023-03-26T06:31:42;99693.69;;;1.47;88.30
50364;BME280;36272;59.400;17.982;2023-03-26T06:36:43;99693.31;;;1.50;88.50
50364;BME280;36272;59.400;17.982;2023-03-26T06:41:45;99697.41;;;1.53;88.41
50364;BME280;36272;59.400;17.982;2023-03-26T06:46:47;99699.28;;;1.59;88.33
50364;BME280;36272;59.400;17.982;2023-03-26T06:51:48;99709.44;;;1.62;88.64
50364;BME280;36272;59.400;17.982;2023-03-26T06:56:50;99713.34;;;1.66;88.42
50364;BME280;36272;59.400;17.982;2023-03-26T07:01:52;99718.44;;;1.68;88.07
50364;BME280;36272;59.400;17.982;2023-03-26T07:06:54;99713.22;;;1.74;87.96
50364;BME280;36272;59.400;17.982;2023-03-26T07:11:56;99708.56;;;1.76;87.82
50364;BME280;36272;59.400;17.982;2023-03-26T07:16:58;99713.53;;;1.86;87.86
50364;BME280;36272;59.400;17.982;2023-03-26T07:22:00;99710.72;;;1.88;87.65
50364;BME280;36272;59.400;17.982;2023-03-26T07:27:11;99713.59;;;1.93;87.38
50364;BME280;36272;59.400;17.982;2023-03-26T07:48:24;99729.78;;;2.12;87.60
50364;BME280;36272;59.400;17.982;2023-03-26T07:53:27;99730.97;;;2.09;87.28
50364;BME280;36272;59.400;17.982;2023-03-26T07:58:49;99729.78;;;2.12;87.42
50364;BME280;36272;59.400;17.982;2023-03-26T08:09:30;99732.41;;;2.33;87.41
50364;BME280;36272;59.400;17.982;2023-03-26T08:25:33;99733.44;;;2.67;87.53
50364;BME280;36272;59.400;17.982;2023-03-26T08:30:36;99742.84;;;2.77;87.26
50364;BME280;36272;59.400;17.982;2023-03-26T08:35:38;99740.84;;;2.86;87.01
50364;BME280;36272;59.400;17.982;2023-03-26T08:46:26;99746.09;;;2.79;86.49
50364;BME280;36272;59.400;17.982;2023-03-26T10:12:38;99767.78;;;2.46;88.39
50364;BME280;36272;59.400;17.982;2023-03-26T10:44:32;99775.09;;;2.72;88.35
50364;BME280;36272;59.400;17.982;2023-03-26T10:50:00;99773.31;;;2.79;88.60
50364;BME280;36272;59.400;17.982;2023-03-26T10:55:16;99789.81;;;2.88;87.75
50364;BME280;36272;59.400;17.982;2023-03-26T11:00:24;99774.16;;;2.87;87.50
50364;BME280;36272;59.400;17.982;2023-03-26T11:05:48;99779.53;;;3.00;88.17
50364;BME280;36272;59.400;17.982;2023-03-26T11:16:36;99775.78;;;3.23;87.08
50364;BME280;36272;59.400;17.982;2023-03-26T11:21:41;99780.97;;;3.45;87.12
50364;BME280;36272;59.400;17.982;2023-03-26T11:27:11;99765.59;;;3.82;85.66
50364;BME280;36272;59.400;17.982;2023-03-26T11:32:23;99779.88;;;4.08;85.12
50364;BME280;36272;59.400;17.982;2023-03-26T11:37:32;99772.97;;;4.20;84.18
50364;BME280;36272;59.400;17.982;2023-03-26T11:42:35;99789.22;;;3.90;83.75
50364;BME280;36272;59.400;17.982;2023-03-26T11:47:43;99794.59;;;3.55;84.41
50364;BME280;36272;59.400;17.982;2023-03-26T11:52:47;99798.47;;;3.52;85.46
50364;BME280;36272;59.400;17.982;2023-03-26T11:57:53;99790.59;;;3.66;85.28
50364;BME280;36272;59.400;17.982;2023-03-26T12:02:57;99789.19;;;3.83;84.98
50364;BME280;36272;59.400;17.982;2023-03-26T12:08:17;99785.75;;;3.90;85.07
50364;BME280;36272;59.400;17.982;2023-03-26T12:18:26;99789.44;;;4.02;83.80
50364;BME280;36272;59.400;17.982;2023-03-26T12:23:55;99787.97;;;4.94;82.46
50364;BME280;36272;59.400;17.982;2023-03-26T12:29:13;99791.94;;;5.75;79.64
50364;BME280;36272;59.400;17.982;2023-03-26T12:34:19;99789.81;;;5.91;78.39
50364;BME280;36272;59.400;17.982;2023-03-26T12:39:32;99790.91;;;5.38;80.80
50364;BME280;36272;59.400;17.982;2023-03-26T12:44:45;99795.75;;;4.82;81.10
50364;BME280;36272;59.400;17.982;2023-03-26T12:49:51;99807.81;;;4.37;82.40
50364;BME280;36272;59.400;17.982;2023-03-26T13:15:40;99801.91;;;4.62;81.71
50364;BME280;36272;59.400;17.982;2023-03-26T13:31:17;99804.13;;;5.51;80.32
50364;BME280;36272;59.400;17.982;2023-03-26T13:37:05;99811.53;;;5.35;78.85
50364;BME280;36272;59.400;17.982;2023-03-26T13:42:11;99795.47;;;5.17;80.71
50364;BME280;36272;59.400;17.982;2023-03-26T13:47:19;99791.19;;;6.07;79.74
50364;BME280;36272;59.400;17.982;2023-03-26T13:52:26;99810.16;;;6.10;78.43
50364;BME280;36272;59.400;17.982;2023-03-26T13:57:42;99798.03;;;5.89;79.05
50364;BME280;36272;59.400;17.982;2023-03-26T14:02:57;99804.13;;;5.51;80.03
50364;BME280;36272;59.400;17.982;2023-03-26T14:08:09;99809.53;;;5.17;79.55
50364;BME280;36272;59.400;17.982;2023-03-26T14:18:35;99819.78;;;5.00;79.20
50364;BME280;36272;59.400;17.982;2023-03-26T14:29:30;99816.97;;;4.48;81.54
50364;BME280;36272;59.400;17.982;2023-03-26T14:51:03;99824.47;;;4.11;81.96
50364;BME280;36272;59.400;17.982;2023-03-26T15:01:25;99820.53;;;3.73;81.56
50364;BME280;36272;59.400;17.982;2023-03-26T15:54:28;99868.34;;;2.73;83.92
50364;BME280;36272;59.400;17.982;2023-03-26T16:00:00;99879.09;;;2.71;83.56
50364;BME280;36272;59.400;17.982;2023-03-26T16:10:40;99879.19;;;2.56;84.27
50364;BME280;36272;59.400;17.982;2023-03-26T16:37:40;99893.44;;;1.82;84.28
50364;BME280;36272;59.400;17.982;2023-03-26T16:48:20;99926.53;;;1.69;85.69
50364;BME280;36272;59.400;17.982;2023-03-26T17:04:02;99904.53;;;1.62;86.11
50364;BME280;36272;59.400;17.982;2023-03-26T17:30:33;99921.84;;;1.50;86.82
50364;BME280;36272;59.400;17.982;2023-03-26T17:35:43;99928.09;;;1.48;86.58
50364;BME280;36272;59.400;17.982;2023-03-26T17:40:48;99928.19;;;1.40;85.86
50364;BME280;36272;59.400;17.982;2023-03-26T17:45:51;99920.44;;;1.39;86.30
50364;BME280;36272;59.400;17.982;2023-03-26T17:56:54;99899.63;;;1.29;86.64
50364;BME280;36272;59.400;17.982;2023-03-26T18:02:35;99905.56;;;1.31;87.34
50364;BME280;36272;59.400;17.982;2023-03-26T18:23:47;99897.72;;;1.23;87.33
50364;BME280;36272;59.400;17.982;2023-03-26T18:29:09;99902.00;;;1.24;87.19
50364;BME280;36272;59.400;17.982;2023-03-26T18:34:14;99924.44;;;1.19;86.84
50364;BME280;36272;59.400;17.982;2023-03-26T18:39:19;99928.06;;;1.18;87.31
50364;BME280;36272;59.400;17.982;2023-03-26T18:44:20;99922.16;;;1.16;86.16
50364;BME280;36272;59.400;17.982;2023-03-26T18:49:25;99927.41;;;1.16;87.21
50364;BME280;36272;59.400;17.982;2023-03-26T18:54:33;99928.06;;;1.18;87.51
50364;BME280;36272;59.400;17.982;2023-03-26T18:59:44;99922.78;;;1.18;86.61
50364;BME280;36272;59.400;17.982;2023-03-26T19:04:48;99920.88;;;1.12;87.06
50364;BME280;36272;59.400;17.982;2023-03-26T19:09:51;99926.13;;;1.12;86.75
50364;BME280;36272;59.400;17.982;2023-03-26T19:15:09;99934.16;;;1.04;86.41
50364;BME280;36272;59.400;17.982;2023-03-26T19:20:18;99921.50;;;0.99;86.33
50364;BME280;36272;59.400;17.982;2023-03-26T19:25:25;99933.84;;;0.99;86.59
50364;BME280;36272;59.400;17.982;2023-03-26T19:30:34;99925.13;;;0.98;86.28
50364;BME280;36272;59.400;17.982;2023-03-26T19:35:37;99922.69;;;0.97;85.86
50364;BME280;36272;59.400;17.982;2023-03-26T19:40:40;99917.13;;;0.92;85.49
50364;BME280;36272;59.400;17.982;2023-03-26T19:45:44;99926.81;;;0.91;85.68
50364;BME280;36272;59.400;17.982;2023-03-26T19:50:59;99920.75;;;0.91;85.24
50364;BME280;36272;59.400;17.982;2023-03-26T20:01:18;99921.09;;;0.87;84.76
50364;BME280;36272;59.400;17.982;2023-03-26T20:06:22;99927.06;;;0.81;84.43
50364;BME280;36272;59.400;17.982;2023-03-26T20:11:35;99921.16;;;0.79;84.83
50364;BME280;36272;59.400;17.982;2023-03-26T20:16:38;99921.88;;;0.73;84.53
50364;BME280;36272;59.400;17.982;2023-03-26T20:21:40;99934.03;;;0.74;84.73
50364;BME280;36272;59.400;17.982;2023-03-26T20:26:43;99925.50;;;0.72;85.04
50364;BME280;36272;59.400;17.982;2023-03-26T20:31:45;99914.31;;;0.70;84.74
50364;BME280;36272;59.400;17.982;2023-03-26T20:36:49;99911.44;;;0.65;84.80
50364;BME280;36272;59.400;17.982;2023-03-26T20:41:55;99920.38;;;0.55;84.34
50364;BME280;36272;59.400;17.982;2023-03-26T20:46:57;99906.91;;;0.50;84.65
50364;BME280;36272;59.400;17.982;2023-03-26T20:51:59;99898.53;;;0.47;85.04
50364;BME280;36272;59.400;17.982;2023-03-26T20:57:01;99899.06;;;0.42;85.16
50364;BME280;36272;59.400;17.982;2023-03-26T21:02:03;99899.78;;;0.36;85.28
50364;BME280;36272;59.400;17.982;2023-03-26T21:07:04;99897.03;;;0.29;85.54
50364;BME280;36272;59.400;17.982;2023-03-26T21:12:23;99887.97;;;0.32;85.62
50364;BME280;36272;59.400;17.982;2023-03-26T21:17:28;99906.91;;;0.27;85.21
50364;BME280;36272;59.400;17.982;2023-03-26T21:23:35;99897.72;;;0.23;85.37
50364;BME280;36272;59.400;17.982;2023-03-26T21:33:32;99909.47;;;0.12;85.13
50364;BME280;36272;59.400;17.982;2023-03-26T21:38:34;99894.50;;;0.12;85.10
50364;BME280;36272;59.400;17.982;2023-03-26T21:43:36;99897.31;;;0.11;85.04
50364;BME280;36272;59.400;17.982;2023-03-26T21:48:48;99893.69;;;0.12;84.94
50364;BME280;36272;59.400;17.982;2023-03-26T21:53:49;99907.00;;;0.10;85.12
50364;BME280;36272;59.400;17.982;2023-03-26T21:59:09;99889.56;;;0.09;85.12
50364;BME280;36272;59.400;17.982;2023-03-26T22:04:24;99896.03;;;0.07;85.46
50364;BME280;36272;59.400;17.982;2023-03-26T22:09:30;99899.78;;;0.04;84.87
50364;BME280;36272;59.400;17.982;2023-03-26T22:14:32;99898.22;;;-0.05;85.43
50364;BME280;36272;59.400;17.982;2023-03-26T22:19:34;99903.66;;;-0.15;85.48
50364;BME280;36272;59.400;17.982;2023-03-26T22:24:39;99909.97;;;-0.24;85.55
50364;BME280;36272;59.400;17.982;2023-03-26T22:29:40;99908.34;;;-0.25;86.07
50364;BME280;36272;59.400;17.982;2023-03-26T22:34:42;99904.06;;;-0.26;86.25
50364;BME280;36272;59.400;17.982;2023-03-26T22:39:45;99907.03;;;-0.29;86.19
50364;BME280;36272;59.400;17.982;2023-03-26T22:44:47;99904.41;;;-0.29;86.35
50364;BME280;36272;59.400;17.982;2023-03-26T22:49:48;99904.75;;;-0.33;86.29
50364;BME280;36272;59.400;17.982;2023-03-26T22:54:51;99909.81;;;-0.31;86.39
50364;BME280;36272;59.400;17.982;2023-03-26T22:59:53;99911.66;;;-0.32;86.53
50364;BME280;36272;59.400;17.982;2023-03-26T23:04:54;99905.75;;;-0.34;86.35
50364;BME280;36272;59.400;17.982;2023-03-26T23:09:56;99902.94;;;-0.32;86.24
50364;BME280;36272;59.400;17.982;2023-03-26T23:14:58;99915.59;;;-0.36;86.16
50364;BME280;36272;59.400;17.982;2023-03-26T23:20:04;99907.06;;;-0.38;86.19
50364;BME280;36272;59.400;17.982;2023-03-26T23:25:12;99908.06;;;-0.39;86.44
50364;BME280;36272;59.400;17.982;2023-03-26T23:30:14;99909.50;;;-0.36;86.42
50364;BME280;36272;59.400;17.982;2023-03-26T23:35:17;99907.38;;;-0.33;86.14
50364;BME280;36272;59.400;17.982;2023-03-26T23:40:18;99907.72;;;-0.36;86.41
50364;BME280;36272;59.400;17.982;2023-03-26T23:45:21;99907.22;;;-0.39;86.11
50364;BME280;36272;59.400;17.982;2023-03-26T23:50:23;99907.56;;;-0.42;86.15
50364;BME280;36272;59.400;17.982;2023-03-26T23:55:24;99908.72;;;-0.45;86.12
